Time;durP1;ratioP1;P1;durP2;ratioP2;P2;SDS_P1;SDS_P2;PMS_P1;PMS_P2;Temp;Humidity;BMP_temperature;BMP_pressure;BME280_temperature;BME280_humidity;BME280_pressure;Samples;Min_cycle;Max_cycle;Signal;HPM_P1;HPM_P2
2021/01/31 00:01:23;;;;;;;;;;;179.70;2252.80;;;;;;5078142;28;19908;-68
2021/01/31 00:03:48;;;;;;;;;;;179.70;2252.80;;;;;;5090731;28;19908;-68
2021/01/31 00:06:14;;;;;;;;;;;179.70;2252.80;;;;;;5099524;28;20301;-67
2021/01/31 00:08:39;;;;;;;;;;;179.70;2252.80;;;;;;5099574;28;19962;-67
2021/01/31 00:11:05;;;;;;;;;;;179.70;2252.80;;;;;;5100372;28;19911;-67
2021/01/31 00:13:31;;;;;;;;;;;179.70;2252.80;;;;;;5100055;28;19942;-67
2021/01/31 00:15:57;;;;;;;;;;;179.60;2252.80;;;;;;5099963;28;19908;-67
2021/01/31 00:18:24;;;;;;;;;;;179.60;2252.80;;;;;;5099966;28;20239;-68
2021/01/31 00:20:51;;;;;;;;;;;179.60;2252.80;;;;;;5100128;28;19998;-67
2021/01/31 00:23:17;;;;;;;;;;;179.70;2252.80;;;;;;5099308;28;19904;-68
2021/01/31 00:25:42;;;;;;;;;;;179.70;2252.80;;;;;;5099987;28;19912;-67
2021/01/31 00:28:09;;;;;;;;;;;179.60;2252.80;;;;;;5099393;28;19998;-67
2021/01/31 00:30:36;;;;;;;;;;;179.50;2252.80;;;;;;5099731;28;19905;-67
2021/01/31 00:33:10;;;;;;;;;;;179.50;2252.80;;;;;;5099029;28;19904;-67
2021/01/31 00:35:37;;;;;;;;;;;179.40;2252.80;;;;;;5099872;28;19904;-67
2021/01/31 00:38:09;;;;;;;;;;;179.40;2252.80;;;;;;5098924;28;19987;-67
2021/01/31 00:40:35;;;;;;;;;;;179.40;2252.80;;;;;;5099740;28;19904;-67
2021/01/31 00:43:01;;;;;;;;;;;179.40;2252.80;;;;;;5099124;28;20175;-67
2021/01/31 00:45:27;;;;;;;;;;;179.40;2252.80;;;;;;5099054;28;19919;-67
2021/01/31 00:47:53;;;;;;;;;;;179.50;2252.80;;;;;;5099633;28;19904;-67
2021/01/31 00:50:20;;;;;;;;;;;179.40;2252.80;;;;;;5098977;28;19904;-67
2021/01/31 00:52:46;;;;;;;;;;;179.40;2252.80;;;;;;5098415;28;19904;-67
2021/01/31 00:55:12;;;;;;;;;;;179.40;2252.80;;;;;;5098665;28;19995;-68
2021/01/31 00:57:38;;;;;;;;;;;179.40;2252.80;;;;;;5099284;28;20016;-68
2021/01/31 01:00:10;;;;;;;;;;;179.40;2252.80;;;;;;5098780;28;20317;-67
2021/01/31 01:02:35;;;;;;;;;;;179.50;2252.80;;;;;;5098514;28;20221;-67
2021/01/31 01:05:01;;;;;;;;;;;179.40;2252.80;;;;;;5098688;28;19961;-67
2021/01/31 01:07:26;;;;;;;;;;;179.40;2252.80;;;;;;5098731;28;19907;-67
2021/01/31 01:09:52;;;;;;;;;;;179.30;2252.80;;;;;;5099539;28;19995;-67
2021/01/31 01:12:17;;;;;;;;;;;179.30;2252.80;;;;;;5098361;28;19908;-67
2021/01/31 01:14:43;;;;;;;;;;;179.30;2252.80;;;;;;5099154;28;19911;-67
2021/01/31 01:17:09;;;;;;;;;;;179.20;2252.80;;;;;;5098210;28;19992;-68
2021/01/31 01:19:34;;;;;;;;;;;179.20;2252.80;;;;;;5098512;28;19904;-67
2021/01/31 01:22:00;;;;;;;;;;;179.20;2252.80;;;;;;5098450;28;19911;-67
2021/01/31 01:24:25;;;;;;;;;;;154.50;2252.80;;;;;;5098994;28;19903;-68
2021/01/31 01:26:52;;;;;;;;;;;154.40;2252.80;;;;;;5098029;28;19966;-67
2021/01/31 01:29:17;;;;;;;;;;;154.40;2252.80;;;;;;5098591;28;19935;-67
2021/01/31 01:31:43;;;;;;;;;;;154.20;2252.80;;;;;;5098581;28;20361;-68
2021/01/31 01:34:09;;;;;;;;;;;154.10;2252.80;;;;;;5098256;28;19939;-67
2021/01/31 01:36:34;;;;;;;;;;;154.00;2252.80;;;;;;5098191;28;19904;-68
2021/01/31 01:39:00;;;;;;;;;;;153.80;2252.80;;;;;;5098189;28;19927;-67
2021/01/31 01:41:26;;;;;;;;;;;153.80;2252.80;;;;;;5098162;28;19904;-67
2021/01/31 01:43:52;;;;;;;;;;;153.70;2252.80;;;;;;5098408;28;19904;-67
2021/01/31 01:46:18;;;;;;;;;;;153.70;2252.80;;;;;;5098000;28;19912;-67
2021/01/31 01:48:48;;;;;;;;;;;153.60;2252.80;;;;;;5098329;28;20202;-67
2021/01/31 01:51:31;;;;;;;;;;;153.70;2252.80;;;;;;5097701;28;20259;-67
2021/01/31 01:53:58;;;;;;;;;;;153.60;2252.80;;;;;;5098154;28;19907;-66
2021/01/31 01:56:27;;;;;;;;;;;128.90;2252.80;;;;;;5097013;28;20282;-67
2021/01/31 01:58:55;;;;;;;;;;;128.90;2252.80;;;;;;5096948;28;19908;-67
2021/01/31 02:01:21;;;;;;;;;;;153.60;2252.80;;;;;;5096448;28;19904;-67
2021/01/31 02:03:46;;;;;;;;;;;153.70;2252.80;;;;;;5096780;28;20045;-68
2021/01/31 02:06:19;;;;;;;;;;;153.70;2252.80;;;;;;5097626;28;20010;-67
2021/01/31 02:08:45;;;;;;;;;;;153.70;2252.80;;;;;;5098110;28;20410;-67
2021/01/31 02:11:12;;;;;;;;;;;153.60;2252.80;;;;;;5098044;28;19910;-67
2021/01/31 02:13:39;;;;;;;;;;;153.60;2252.80;;;;;;5098051;28;19908;-67
2021/01/31 02:16:10;;;;;;;;;;;153.60;2252.80;;;;;;5097761;28;19927;-68
2021/01/31 02:18:39;;;;;;;;;;;153.70;2252.80;;;;;;5097806;28;19904;-67
2021/01/31 02:21:11;;;;;;;;;;;153.80;2252.80;;;;;;5097962;28;19911;-67
2021/01/31 02:23:45;;;;;;;;;;;153.80;2252.80;;;;;;5097626;28;20293;-67
2021/01/31 02:26:29;;;;;;;;;;;153.70;2252.80;;;;;;5098119;28;20022;-68
2021/01/31 02:29:13;;;;;;;;;;;153.60;2252.80;;;;;;5097367;28;19911;-67
2021/01/31 02:31:54;;;;;;;;;;;153.70;2252.80;;;;;;5097594;28;20328;-68
2021/01/31 02:34:27;;;;;;;;;;;128.90;2252.80;;;;;;5097306;28;20322;-68
2021/01/31 02:37:08;;;;;;;;;;;128.80;2252.80;;;;;;5097530;28;19908;-68
2021/01/31 02:39:41;;;;;;;;;;;128.80;2252.80;;;;;;5097527;28;19904;-68
2021/01/31 02:42:14;;;;;;;;;;;128.80;2252.80;;;;;;5098063;28;19958;-67
2021/01/31 02:44:41;;;;;;;;;;;128.90;2252.80;;;;;;5097266;28;19904;-67
2021/01/31 02:47:10;;;;;;;;;;;128.90;2252.80;;;;;;5097924;28;19978;-68
2021/01/31 02:49:39;;;;;;;;;;;128.70;2252.80;;;;;;5097442;28;19908;-68
2021/01/31 02:52:21;;;;;;;;;;;128.70;2252.80;;;;;;5097970;28;20176;-67
2021/01/31 02:55:08;;;;;;;;;;;128.60;2252.80;;;;;;5097746;28;20060;-68
2021/01/31 02:57:37;;;;;;;;;;;128.50;2252.80;;;;;;5097694;28;20270;-68
2021/01/31 03:00:15;;;;;;;;;;;128.50;2252.80;;;;;;5097064;28;19904;-68
2021/01/31 03:02:47;;;;;;;;;;;128.50;2252.80;;;;;;5097271;28;20255;-67
2021/01/31 03:05:20;;;;;;;;;;;128.50;2252.80;;;;;;5096844;28;19916;-68
2021/01/31 03:07:49;;;;;;;;;;;128.50;2252.80;;;;;;5097570;28;19950;-67
2021/01/31 03:10:20;;;;;;;;;;;128.40;2252.80;;;;;;5097502;28;19913;-67
2021/01/31 03:13:07;;;;;;;;;;;128.30;2252.80;;;;;;5097019;28;19908;-68
2021/01/31 03:15:36;;;;;;;;;;;128.30;2252.80;;;;;;5098844;28;19973;-68
2021/01/31 03:18:09;;;;;;;;;;;128.30;2252.80;;;;;;5100578;28;19911;-67
2021/01/31 03:20:37;;;;;;;;;;;128.30;2252.80;;;;;;5101084;28;20178;-68
2021/01/31 03:23:21;;;;;;;;;;;128.40;2252.80;;;;;;5101017;28;19910;-68
2021/01/31 03:25:52;;;;;;;;;;;128.40;2252.80;;;;;;5100905;28;19961;-68
2021/01/31 03:28:17;;;;;;;;;;;128.40;2252.80;;;;;;5100926;28;20004;-68
2021/01/31 03:30:45;;;;;;;;;;;128.50;2252.80;;;;;;5101136;28;19904;-67
2021/01/31 03:33:13;;;;;;;;;;;128.50;2252.80;;;;;;5100615;28;20301;-67
2021/01/31 03:35:41;;;;;;;;;;;128.50;2252.80;;;;;;5100755;28;19911;-68
2021/01/31 03:38:29;;;;;;;;;;;128.50;2252.80;;;;;;5100738;28;19999;-67
2021/01/31 03:40:57;;;;;;;;;;;128.60;2252.80;;;;;;5100766;28;19904;-67
2021/01/31 03:43:23;;;;;;;;;;;128.70;2252.80;;;;;;5100699;28;19904;-67
2021/01/31 03:46:07;;;;;;;;;;;128.80;2252.80;;;;;;5100263;28;19908;-67
2021/01/31 03:48:51;;;;;;;;;;;128.90;2252.80;;;;;;5100560;28;20002;-67
2021/01/31 03:51:17;;;;;;;;;;;128.90;2252.80;;;;;;5100782;28;19994;-67
2021/01/31 03:53:43;;;;;;;;;;;128.90;2252.80;;;;;;5099915;28;19904;-67
2021/01/31 03:56:10;;;;;;;;;;;128.80;2252.80;;;;;;5100569;28;19904;-67
2021/01/31 03:58:38;;;;;;;;;;;128.80;2252.80;;;;;;5100061;28;19994;-68
2021/01/31 04:01:04;;;;;;;;;;;128.80;2252.80;;;;;;5100051;28;19949;-67
2021/01/31 04:03:39;;;;;;;;;;;128.70;2252.80;;;;;;5099935;28;19904;-67
2021/01/31 04:06:13;;;;;;;;;;;128.80;2252.80;;;;;;5099923;28;19939;-67
2021/01/31 04:08:40;;;;;;;;;;;128.70;2252.80;;;;;;5099537;28;20011;-67
2021/01/31 04:11:06;;;;;;;;;;;128.80;2252.80;;;;;;5100118;28;19904;-68
2021/01/31 04:13:33;;;;;;;;;;;128.80;2252.80;;;;;;5100071;28;20270;-67
2021/01/31 04:16:00;;;;;;;;;;;128.90;2252.80;;;;;;5099766;28;20274;-68
2021/01/31 04:18:26;;;;;;;;;;;128.80;2252.80;;;;;;5099741;28;20248;-67
2021/01/31 04:20:52;;;;;;;;;;;128.80;2252.80;;;;;;5099249;28;19932;-68
2021/01/31 04:23:18;;;;;;;;;;;128.70;2252.80;;;;;;5099829;28;20268;-67
2021/01/31 04:25:44;;;;;;;;;;;128.70;2252.80;;;;;;5099102;28;19908;-67
2021/01/31 04:28:11;;;;;;;;;;;128.80;2252.80;;;;;;5099800;28;19908;-68
2021/01/31 04:30:38;;;;;;;;;;;128.70;2252.80;;;;;;5099717;28;20317;-67
2021/01/31 04:33:04;;;;;;;;;;;128.80;2252.80;;;;;;5099669;28;20205;-67
2021/01/31 04:35:29;;;;;;;;;;;128.90;2252.80;;;;;;5099365;28;19907;-67
2021/01/31 04:37:55;;;;;;;;;;;153.60;2252.80;;;;;;5099874;28;19904;-67
2021/01/31 04:40:21;;;;;;;;;;;153.60;2252.80;;;;;;5098789;28;19956;-67
2021/01/31 04:42:46;;;;;;;;;;;153.60;2252.80;;;;;;5099543;28;19911;-67
2021/01/31 04:45:13;;;;;;;;;;;153.60;2252.80;;;;;;5099341;28;19911;-67
2021/01/31 04:47:57;;;;;;;;;;;153.80;2252.80;;;;;;5099411;28;20290;-67
2021/01/31 04:50:26;;;;;;;;;;;154.00;2252.80;;;;;;5099058;28;19911;-68
2021/01/31 04:52:52;;;;;;;;;;;154.30;2252.80;;;;;;5099559;28;19904;-67
2021/01/31 04:55:20;;;;;;;;;;;154.50;2252.80;;;;;;5098677;28;19915;-67
2021/01/31 04:57:52;;;;;;;;;;;179.30;2252.80;;;;;;5098960;28;19903;-67
2021/01/31 05:00:25;;;;;;;;;;;179.30;2252.80;;;;;;5099232;28;20290;-68
2021/01/31 05:02:54;;;;;;;;;;;179.30;2252.80;;;;;;5098845;28;19911;-67
2021/01/31 05:05:20;;;;;;;;;;;179.40;2252.80;;;;;;5098758;28;20277;-67
2021/01/31 05:07:52;;;;;;;;;;;179.50;2252.80;;;;;;5099261;28;20013;-67
2021/01/31 05:10:17;;;;;;;;;;;179.60;2252.80;;;;;;5098377;28;19904;-67
2021/01/31 05:13:02;;;;;;;;;;;179.70;2252.80;;;;;;5098954;28;19904;-67
2021/01/31 05:15:29;;;;;;;;;;;179.80;2252.80;;;;;;5098595;28;20213;-67
2021/01/31 05:17:57;;;;;;;;;;;179.90;2201.60;;;;;;5098313;28;19904;-67
2021/01/31 05:20:25;;;;;;;;;;;180.00;2176.00;;;;;;5098488;28;20191;-68
2021/01/31 05:22:52;;;;;;;;;;;180.10;2227.20;;;;;;5098204;28;19910;-68
2021/01/31 05:25:19;;;;;;;;;;;180.10;2201.60;;;;;;5098664;28;19904;-67
2021/01/31 05:27:45;;;;;;;;;;;179.90;2252.80;;;;;;5098690;28;19904;-68
2021/01/31 05:30:11;;;;;;;;;;;180.00;2252.80;;;;;;5097880;28;20293;-67
2021/01/31 05:32:57;;;;;;;;;;;180.00;2252.80;;;;;;5098271;28;20179;-68
2021/01/31 05:35:23;;;;;;;;;;;180.10;2227.20;;;;;;5090142;28;20214;-67
2021/01/31 05:37:48;;;;;;;;;;;204.80;2227.20;;;;;;5077526;28;19911;-67
2021/01/31 05:40:26;;;;;;;;;;;204.80;2252.80;;;;;;5078159;28;20248;-67
2021/01/31 05:42:52;;;;;;;;;;;204.90;2227.20;;;;;;5078372;28;19905;-68
2021/01/31 05:45:20;;;;;;;;;;;205.00;2201.60;;;;;;5077503;28;19908;-67
2021/01/31 05:47:47;;;;;;;;;;;204.90;2201.60;;;;;;5078151;28;20270;-67
2021/01/31 05:50:31;;;;;;;;;;;204.80;2227.20;;;;;;5078146;28;19911;-67
2021/01/31 05:52:57;;;;;;;;;;;180.10;2227.20;;;;;;5078106;28;19957;-68
2021/01/31 05:55:29;;;;;;;;;;;180.00;2252.80;;;;;;5077767;28;20204;-67
2021/01/31 05:58:11;;;;;;;;;;;180.10;2252.80;;;;;;5078295;28;20209;-68
2021/01/31 06:00:37;;;;;;;;;;;180.10;2252.80;;;;;;5077476;28;19908;-67
2021/01/31 06:03:04;;;;;;;;;;;204.80;2252.80;;;;;;5078262;28;20051;-68
2021/01/31 06:05:31;;;;;;;;;;;204.80;2252.80;;;;;;5077574;28;20321;-67
2021/01/31 06:08:07;;;;;;;;;;;204.80;2252.80;;;;;;5077930;28;19989;-67
2021/01/31 06:10:35;;;;;;;;;;;204.80;2227.20;;;;;;5077929;28;20045;-67
2021/01/31 06:13:05;;;;;;;;;;;204.90;2252.80;;;;;;5077903;28;19912;-67
2021/01/31 06:15:38;;;;;;;;;;;204.90;2252.80;;;;;;5078124;28;19930;-68
2021/01/31 06:18:12;;;;;;;;;;;205.00;2227.20;;;;;;5077850;28;19905;-67
2021/01/31 06:20:40;;;;;;;;;;;205.10;2227.20;;;;;;5077280;28;19908;-67
2021/01/31 06:23:06;;;;;;;;;;;205.00;2227.20;;;;;;5078348;28;19911;-68
2021/01/31 06:25:39;;;;;;;;;;;205.20;2176.00;;;;;;5077513;28;19913;-68
2021/01/31 06:28:10;;;;;;;;;;;205.20;2176.00;;;;;;5077124;28;19908;-67
2021/01/31 06:30:42;;;;;;;;;;;205.30;2176.00;;;;;;5077382;28;19904;-68
2021/01/31 06:33:08;;;;;;;;;;;205.40;2176.00;;;;;;5077627;28;19908;-68
2021/01/31 06:35:34;;;;;;;;;;;205.40;2150.40;;;;;;5076780;28;20249;-67
2021/01/31 06:38:18;;;;;;;;;;;205.40;2176.00;;;;;;5077579;28;19911;-67
2021/01/31 06:40:46;;;;;;;;;;;205.40;2176.00;;;;;;5077320;28;19905;-68
2021/01/31 06:43:30;;;;;;;;;;;205.50;2176.00;;;;;;5077541;28;20330;-68
2021/01/31 06:45:59;;;;;;;;;;;205.60;2150.40;;;;;;5097492;28;19919;-67
2021/01/31 06:48:28;;;;;;;;;;;205.60;2150.40;;;;;;5097188;28;19949;-67
2021/01/31 06:50:56;;;;;;;;;;;205.70;2124.80;;;;;;5099089;28;20209;-68
2021/01/31 06:53:40;;;;;;;;;;;205.70;2099.20;;;;;;5101639;28;19904;-68
2021/01/31 06:56:14;;;;;;;;;;;230.50;2073.60;;;;;;5101570;28;20175;-67
2021/01/31 06:58:43;;;;;;;;;;;230.50;2124.80;;;;;;5101814;28;19910;-67
2021/01/31 07:01:41;;;;;;;;;;;230.50;2124.80;;;;;;5101456;28;19908;-68
2021/01/31 07:04:25;;;;;;;;;;;230.60;2099.20;;;;;;5100436;28;19907;-67
2021/01/31 07:07:09;;;;;;;;;;;230.70;2022.40;;;;;;5101151;28;20290;-67
2021/01/31 07:09:50;;;;;;;;;;;230.90;2022.40;;;;;;5101044;28;19911;-68
2021/01/31 07:12:15;;;;;;;;;;;231.10;1971.20;;;;;;5101262;28;19917;-68
2021/01/31 07:14:48;;;;;;;;;;;231.30;1971.20;;;;;;5100939;28;19904;-68
2021/01/31 07:17:26;;;;;;;;;;;231.30;2022.40;;;;;;5101206;28;19995;-68
2021/01/31 07:19:55;;;;;;;;;;;231.00;2073.60;;;;;;5101104;28;19911;-68
2021/01/31 07:22:47;;;;;;;;;;;231.00;2073.60;;;;;;5101354;28;19904;-67
2021/01/31 07:25:20;;;;;;;;;;;230.70;2124.80;;;;;;5099397;28;19939;-68
2021/01/31 07:27:52;;;;;;;;;;;230.60;2150.40;;;;;;5101227;28;19904;-68
2021/01/31 07:30:21;;;;;;;;;;;205.70;2201.60;;;;;;5100592;28;20239;-68
2021/01/31 07:32:56;;;;;;;;;;;205.50;2227.20;;;;;;5101172;28;19907;-67
2021/01/31 07:35:24;;;;;;;;;;;205.40;2252.80;;;;;;5100480;28;19910;-68
2021/01/31 07:37:52;;;;;;;;;;;205.40;2252.80;;;;;;5100812;28;19965;-67
2021/01/31 07:40:19;;;;;;;;;;;205.30;2252.80;;;;;;5100494;28;20444;-67
2021/01/31 07:42:46;;;;;;;;;;;205.30;2252.80;;;;;;5095569;28;19908;-68
2021/01/31 07:45:17;;;;;;;;;;;205.40;2252.80;;;;;;5080319;28;19931;-68
2021/01/31 07:47:43;;;;;;;;;;;205.50;2252.80;;;;;;5080100;28;19998;-67
2021/01/31 07:50:08;;;;;;;;;;;205.50;2252.80;;;;;;5080249;28;19955;-68
2021/01/31 07:52:46;;;;;;;;;;;205.50;2252.80;;;;;;5079716;28;19904;-67
2021/01/31 07:55:30;;;;;;;;;;;205.70;2252.80;;;;;;5080162;28;19934;-69
2021/01/31 07:57:59;;;;;;;;;;;205.70;2227.20;;;;;;5079865;28;19909;-68
2021/01/31 08:00:31;;;;;;;;;;;230.40;2227.20;;;;;;5080114;28;19904;-67
2021/01/31 08:02:57;;;;;;;;;;;230.60;2201.60;;;;;;5079448;28;19951;-67
2021/01/31 08:05:41;;;;;;;;;;;230.90;2150.40;;;;;;5078793;28;20292;-67
2021/01/31 08:08:08;;;;;;;;;;;231.10;2099.20;;;;;;5079974;28;20314;-68
2021/01/31 08:10:40;;;;;;;;;;;256.20;2073.60;;;;;;5079908;28;19912;-68
2021/01/31 08:13:09;;;;;;;;;;;256.30;2073.60;;;;;;5079833;28;19904;-68
2021/01/31 08:15:35;;;;;;;;;;;256.30;2073.60;;;;;;5079504;28;19904;-68
2021/01/31 08:18:00;;;;;;;;;;;256.70;2022.40;;;;;;5079753;28;19905;-68
2021/01/31 08:20:26;;;;;;;;;;;256.80;2073.60;;;;;;5078009;28;19905;-68
2021/01/31 08:22:52;;;;;;;;;;;256.90;2022.40;;;;;;5079197;28;20225;-67
2021/01/31 08:25:18;;;;;;;;;;;281.60;2048.00;;;;;;5079075;28;19908;-69
2021/01/31 08:27:51;;;;;;;;;;;281.60;2048.00;;;;;;5079375;28;20196;-67
2021/01/31 08:30:28;;;;;;;;;;;281.80;2073.60;;;;;;5079374;28;19908;-67
2021/01/31 08:33:06;;;;;;;;;;;281.80;2073.60;;;;;;5079236;28;19908;-68
2021/01/31 08:35:32;;;;;;;;;;;282.00;2048.00;;;;;;5079076;28;19957;-68
2021/01/31 08:38:16;;;;;;;;;;;282.20;2022.40;;;;;;5079363;28;19954;-67
2021/01/31 08:41:03;;;;;;;;;;;307.20;2022.40;;;;;;5079026;28;19904;-68
2021/01/31 08:43:30;;;;;;;;;;;307.50;2022.40;;;;;;5079540;28;19908;-67
2021/01/31 08:46:22;;;;;;;;;;;307.90;1971.20;;;;;;5079060;28;19915;-68
2021/01/31 08:48:53;;;;;;;;;;;308.10;1971.20;;;;;;5076688;28;19909;-68
2021/01/31 08:51:24;;;;;;;;;;;332.90;1971.20;;;;;;5078968;28;19905;-67
2021/01/31 08:54:17;;;;;;;;;;;333.10;1945.60;;;;;;5078707;28;19911;-66
2021/01/31 08:56:59;;;;;;;;;;;333.20;1920.00;;;;;;5078040;28;20002;-67
2021/01/31 08:59:25;;;;;;;;;;;333.40;1868.80;;;;;;5078907;28;19908;-68
2021/01/31 09:02:09;;;;;;;;;;;333.60;1817.60;;;;;;5078571;28;19904;-66
2021/01/31 09:04:36;;;;;;;;;;;333.70;1792.00;;;;;;5078925;28;19904;-67
2021/01/31 09:07:02;;;;;;;;;;;358.80;1792.00;;;;;;5078159;28;19925;-66
2021/01/31 09:09:28;;;;;;;;;;;358.90;1817.60;;;;;;5078453;28;19913;-66
2021/01/31 09:11:58;;;;;;;;;;;358.60;1740.80;;;;;;5078658;28;19973;-66
2021/01/31 09:14:25;;;;;;;;;;;359.00;1766.40;;;;;;5078558;28;19931;-67
2021/01/31 09:17:04;;;;;;;;;;;384.00;1715.20;;;;;;5078616;28;19989;-66
2021/01/31 09:19:30;;;;;;;;;;;384.10;1689.60;;;;;;5078304;28;19927;-66
2021/01/31 09:22:00;;;;;;;;;;;384.40;1612.80;;;;;;5078289;28;19912;-67
2021/01/31 09:24:29;;;;;;;;;;;384.90;1587.20;;;;;;5078181;28;19927;-67
2021/01/31 09:26:57;;;;;;;;;;;384.90;1612.80;;;;;;5077472;28;19908;-67
2021/01/31 09:29:25;;;;;;;;;;;384.50;1536.00;;;;;;5076994;28;19908;-67
2021/01/31 09:31:53;;;;;;;;;;;384.70;1587.20;;;;;;5077156;28;20004;-67
2021/01/31 09:34:20;;;;;;;;;;;409.60;1612.80;;;;;;5077323;28;19985;-67
2021/01/31 09:36:45;;;;;;;;;;;409.80;1561.60;;;;;;5078300;28;19961;-67
2021/01/31 09:39:11;;;;;;;;;;;409.90;1561.60;;;;;;5077813;28;19908;-68
2021/01/31 09:41:37;;;;;;;;;;;409.90;1536.00;;;;;;5078481;28;19957;-70
2021/01/31 09:44:04;;;;;;;;;;;409.60;1587.20;;;;;;5077644;28;20003;-69
2021/01/31 09:46:30;;;;;;;;;;;409.70;1561.60;;;;;;5078134;28;19912;-68
2021/01/31 09:49:04;;;;;;;;;;;409.80;1536.00;;;;;;5077626;28;19958;-68
2021/01/31 09:51:30;;;;;;;;;;;384.90;1433.60;;;;;;5087078;28;19965;-70
2021/01/31 09:54:11;;;;;;;;;;;409.60;1484.80;;;;;;5083483;28;20194;-66
2021/01/31 09:56:39;;;;;;;;;;;409.60;1510.40;;;;;;5085839;28;20326;-68
2021/01/31 09:59:18;;;;;;;;;;;409.60;1459.20;;;;;;5088568;28;19914;-69
2021/01/31 10:01:43;;;;;;;;;;;409.70;1459.20;;;;;;5093038;28;19950;-67
2021/01/31 10:04:16;;;;;;;;;;;409.80;1459.20;;;;;;5098058;28;19908;-67
2021/01/31 10:06:43;;;;;;;;;;;409.70;1433.60;;;;;;5086427;28;20003;-68
2021/01/31 10:09:09;;;;;;;;;;;409.60;1459.20;;;;;;5082327;28;19908;-66
2021/01/31 10:11:39;;;;;;;;;;;409.60;1459.20;;;;;;5096851;28;19908;-68
2021/01/31 10:14:06;;;;;;;;;;;409.60;1433.60;;;;;;5079298;28;20210;-66
2021/01/31 10:16:36;;;;;;;;;;;409.60;1433.60;;;;;;5096938;28;19908;-67
2021/01/31 10:19:09;;;;;;;;;;;409.60;1408.00;;;;;;5098114;28;19911;-66
2021/01/31 10:21:37;;;;;;;;;;;409.70;1459.20;;;;;;5097241;28;20218;-67
2021/01/31 10:24:21;;;;;;;;;;;409.80;1459.20;;;;;;5098342;28;19933;-66
2021/01/31 10:26:47;;;;;;;;;;;409.70;1433.60;;;;;;5101346;28;19919;-66
2021/01/31 10:29:21;;;;;;;;;;;409.60;1408.00;;;;;;5101371;28;19908;-67
2021/01/31 10:31:47;;;;;;;;;;;384.80;1382.40;;;;;;5099030;28;19911;-69
2021/01/31 10:34:32;;;;;;;;;;;384.60;1408.00;;;;;;5089300;28;19908;-67
2021/01/31 10:37:12;;;;;;;;;;;384.40;1433.60;;;;;;5081350;28;19908;-69
2021/01/31 10:39:37;;;;;;;;;;;384.40;1459.20;;;;;;5087209;28;19915;-68
2021/01/31 10:42:03;;;;;;;;;;;384.20;1433.60;;;;;;5091285;28;19904;-69
2021/01/31 10:44:32;;;;;;;;;;;359.30;1433.60;;;;;;5091109;28;20009;-68
2021/01/31 10:46:58;;;;;;;;;;;359.00;1459.20;;;;;;5095370;28;20348;-68
2021/01/31 10:49:24;;;;;;;;;;;358.70;1459.20;;;;;;5091577;28;19944;-68
2021/01/31 10:51:50;;;;;;;;;;;358.50;1459.20;;;;;;5084111;28;19905;-68
2021/01/31 10:54:16;;;;;;;;;;;333.70;1510.40;;;;;;5079606;28;19904;-69
2021/01/31 10:56:42;;;;;;;;;;;333.70;1510.40;;;;;;5079299;28;19905;-67
2021/01/31 10:59:08;;;;;;;;;;;333.60;1536.00;;;;;;5081053;28;19936;-68
2021/01/31 11:01:34;;;;;;;;;;;333.50;1484.80;;;;;;5080505;28;19904;-69
2021/01/31 11:03:59;;;;;;;;;;;333.50;1484.80;;;;;;5079937;28;19939;-68
2021/01/31 11:06:27;;;;;;;;;;;333.40;1484.80;;;;;;5084040;28;19969;-68
2021/01/31 11:08:53;;;;;;;;;;;333.50;1484.80;;;;;;5100662;28;19942;-69
2021/01/31 11:11:20;;;;;;;;;;;333.50;1484.80;;;;;;5100660;28;19907;-68
2021/01/31 11:13:46;;;;;;;;;;;333.60;1459.20;;;;;;5101071;28;20206;-68
2021/01/31 11:16:11;;;;;;;;;;;358.40;1484.80;;;;;;5100792;28;19977;-69
2021/01/31 11:18:37;;;;;;;;;;;358.70;1459.20;;;;;;5101086;28;20289;-68
2021/01/31 11:21:03;;;;;;;;;;;358.70;1484.80;;;;;;5100712;28;19904;-67
2021/01/31 11:23:28;;;;;;;;;;;358.60;1433.60;;;;;;5100963;28;19915;-68
2021/01/31 11:25:54;;;;;;;;;;;358.50;1459.20;;;;;;5099852;28;19965;-69
2021/01/31 11:28:20;;;;;;;;;;;358.50;1433.60;;;;;;5101160;28;20285;-69
2021/01/31 11:30:46;;;;;;;;;;;358.50;1459.20;;;;;;5100541;28;19911;-68
2021/01/31 11:33:12;;;;;;;;;;;358.40;1459.20;;;;;;5100764;28;19908;-69
2021/01/31 11:35:37;;;;;;;;;;;358.50;1433.60;;;;;;5099953;28;19904;-68
2021/01/31 11:38:03;;;;;;;;;;;358.50;1433.60;;;;;;5100207;28;20560;-71
2021/01/31 11:40:29;;;;;;;;;;;358.50;1459.20;;;;;;5100355;28;19944;-68
2021/01/31 11:42:55;;;;;;;;;;;358.50;1459.20;;;;;;5100533;28;20308;-68
2021/01/31 11:45:22;;;;;;;;;;;358.50;1433.60;;;;;;5100188;28;19911;-70
2021/01/31 11:47:47;;;;;;;;;;;358.40;1433.60;;;;;;5100334;28;20201;-70
2021/01/31 11:50:14;;;;;;;;;;;358.50;1433.60;;;;;;5100140;28;19998;-70
2021/01/31 11:52:40;;;;;;;;;;;358.60;1433.60;;;;;;5099887;28;19904;-69
2021/01/31 11:55:06;;;;;;;;;;;358.60;1484.80;;;;;;5100040;28;19904;-68
2021/01/31 11:57:31;;;;;;;;;;;358.80;1484.80;;;;;;5100295;28;20324;-69
2021/01/31 11:59:57;;;;;;;;;;;359.10;1433.60;;;;;;5099565;28;19908;-68
2021/01/31 12:02:24;;;;;;;;;;;359.00;1408.00;;;;;;5100481;28;19904;-69
2021/01/31 12:04:49;;;;;;;;;;;359.10;1408.00;;;;;;5099737;28;19908;-70
2021/01/31 12:07:15;;;;;;;;;;;359.30;1382.40;;;;;;5093521;28;20018;-69
2021/01/31 12:09:41;;;;;;;;;;;384.10;1382.40;;;;;;5090295;28;19908;-69
2021/01/31 12:12:07;;;;;;;;;;;384.30;1356.80;;;;;;5088854;28;19933;-67
2021/01/31 12:14:33;;;;;;;;;;;384.20;1382.40;;;;;;5088420;28;19908;-69
2021/01/31 12:16:58;;;;;;;;;;;384.20;1356.80;;;;;;5089366;28;19916;-70
2021/01/31 12:19:24;;;;;;;;;;;384.30;1356.80;;;;;;5084370;28;20262;-69
2021/01/31 12:21:50;;;;;;;;;;;384.10;1382.40;;;;;;5095719;28;20210;-69
2021/01/31 12:24:16;;;;;;;;;;;384.00;1408.00;;;;;;5090488;28;19957;-69
2021/01/31 12:26:41;;;;;;;;;;;384.00;1382.40;;;;;;5086400;28;19924;-70
2021/01/31 12:29:07;;;;;;;;;;;359.10;1408.00;;;;;;5084500;28;19919;-69
2021/01/31 12:31:33;;;;;;;;;;;359.00;1356.80;;;;;;5079382;28;20046;-68
2021/01/31 12:33:58;;;;;;;;;;;358.90;1382.40;;;;;;5079063;28;20241;-68
2021/01/31 12:36:24;;;;;;;;;;;358.80;1408.00;;;;;;5084755;28;19927;-69
2021/01/31 12:38:49;;;;;;;;;;;358.70;1433.60;;;;;;5099406;28;19904;-69
2021/01/31 12:41:15;;;;;;;;;;;358.40;1408.00;;;;;;5099278;28;19944;-68
2021/01/31 12:43:40;;;;;;;;;;;358.40;1408.00;;;;;;5088185;28;20352;-69
2021/01/31 12:46:06;;;;;;;;;;;333.70;1382.40;;;;;;5077077;28;19913;-69
2021/01/31 12:48:32;;;;;;;;;;;333.60;1408.00;;;;;;5075233;28;19908;-68
2021/01/31 12:50:57;;;;;;;;;;;333.60;1408.00;;;;;;5076624;28;20298;-69
2021/01/31 12:53:23;;;;;;;;;;;333.60;1408.00;;;;;;5094511;28;19908;-69
2021/01/31 12:55:49;;;;;;;;;;;333.50;1433.60;;;;;;5096796;28;20201;-68
2021/01/31 12:58:14;;;;;;;;;;;333.60;1408.00;;;;;;5096561;28;19908;-68
2021/01/31 13:00:40;;;;;;;;;;;333.50;1433.60;;;;;;5096886;28;19911;-69
2021/01/31 13:03:05;;;;;;;;;;;333.60;1433.60;;;;;;5095069;28;19908;-69
2021/01/31 13:05:31;;;;;;;;;;;333.60;1433.60;;;;;;5096747;28;20010;-69
2021/01/31 13:07:57;;;;;;;;;;;333.60;1408.00;;;;;;5094847;28;20268;-69
2021/01/31 13:10:23;;;;;;;;;;;333.70;1408.00;;;;;;5094351;28;19915;-68
2021/01/31 13:12:49;;;;;;;;;;;333.70;1408.00;;;;;;5085765;28;19954;-68
2021/01/31 13:15:14;;;;;;;;;;;333.60;1408.00;;;;;;5081798;28;19912;-68
2021/01/31 13:17:40;;;;;;;;;;;333.60;1382.40;;;;;;5076255;28;20205;-70
2021/01/31 13:20:06;;;;;;;;;;;333.40;1433.60;;;;;;5090008;28;20289;-67
2021/01/31 13:22:31;;;;;;;;;;;333.30;1459.20;;;;;;5090368;28;19936;-67
2021/01/31 13:24:57;;;;;;;;;;;333.30;1433.60;;;;;;5095821;28;19908;-66
2021/01/31 13:27:23;;;;;;;;;;;333.20;1484.80;;;;;;5096410;28;20001;-67
2021/01/31 13:29:48;;;;;;;;;;;333.20;1459.20;;;;;;5096336;28;19912;-66
2021/01/31 13:32:14;;;;;;;;;;;333.10;1459.20;;;;;;5085771;28;20019;-66
2021/01/31 13:34:41;;;;;;;;;;;333.20;1459.20;;;;;;5073665;28;19908;-67
2021/01/31 13:37:06;;;;;;;;;;;333.20;1459.20;;;;;;5074568;28;19915;-67
2021/01/31 13:39:32;;;;;;;;;;;333.20;1433.60;;;;;;5075390;28;19908;-67
2021/01/31 13:41:57;;;;;;;;;;;333.10;1484.80;;;;;;5074249;28;20250;-67
2021/01/31 13:44:24;;;;;;;;;;;333.00;1484.80;;;;;;5074801;28;19944;-66
2021/01/31 13:46:50;;;;;;;;;;;332.90;1510.40;;;;;;5074742;28;20323;-67
2021/01/31 13:49:17;;;;;;;;;;;332.90;1484.80;;;;;;5074902;28;19940;-67
2021/01/31 13:51:43;;;;;;;;;;;332.80;1484.80;;;;;;5093820;28;20182;-66
2021/01/31 13:54:09;;;;;;;;;;;332.80;1510.40;;;;;;5095721;28;19908;-67